sensor_id;sensor_type;location;lat;lon;timestamp;temperature;humidity
31677;DHT22;18385;51.572;6.578;2022-07-17T00:01:05;18.90;41.70
31677;DHT22;18385;51.572;6.578;2022-07-17T00:03:30;18.90;41.80
31677;DHT22;18385;51.572;6.578;2022-07-17T00:05:56;18.80;41.90
31677;DHT22;18385;51.572;6.578;2022-07-17T00:08:22;18.80;42.00
31677;DHT22;18385;51.572;6.578;2022-07-17T00:10:47;18.70;42.10
31677;DHT22;18385;51.572;6.578;2022-07-17T00:13:13;18.70;42.30
31677;DHT22;18385;51.572;6.578;2022-07-17T00:15:39;18.70;42.40
31677;DHT22;18385;51.572;6.578;2022-07-17T00:18:05;18.70;42.50
31677;DHT22;18385;51.572;6.578;2022-07-17T00:20:32;18.70;42.60
31677;DHT22;18385;51.572;6.578;2022-07-17T00:22:58;18.70;42.80
31677;DHT22;18385;51.572;6.578;2022-07-17T00:25:24;18.60;42.80
31677;DHT22;18385;51.572;6.578;2022-07-17T00:27:50;18.60;42.90
31677;DHT22;18385;51.572;6.578;2022-07-17T00:30:16;18.50;43.00
31677;DHT22;18385;51.572;6.578;2022-07-17T00:32:43;18.50;43.10
31677;DHT22;18385;51.572;6.578;2022-07-17T00:35:09;18.50;43.20
31677;DHT22;18385;51.572;6.578;2022-07-17T00:37:43;18.50;43.30
31677;DHT22;18385;51.572;6.578;2022-07-17T00:40:10;18.50;43.50
31677;DHT22;18385;51.572;6.578;2022-07-17T00:42:39;18.50;43.50
31677;DHT22;18385;51.572;6.578;2022-07-17T00:45:07;18.40;43.70
31677;DHT22;18385;51.572;6.578;2022-07-17T00:47:33;18.40;43.70
31677;DHT22;18385;51.572;6.578;2022-07-17T00:49:58;18.30;43.80
31677;DHT22;18385;51.572;6.578;2022-07-17T00:52:24;18.30;43.80
31677;DHT22;18385;51.572;6.578;2022-07-17T00:54:50;18.30;44.00
31677;DHT22;18385;51.572;6.578;2022-07-17T00:57:19;18.20;44.10
31677;DHT22;18385;51.572;6.578;2022-07-17T00:59:45;18.20;44.20
31677;DHT22;18385;51.572;6.578;2022-07-17T01:02:12;18.10;44.20
31677;DHT22;18385;51.572;6.578;2022-07-17T01:04:39;18.10;44.40
31677;DHT22;18385;51.572;6.578;2022-07-17T01:07:06;18.00;44.50
31677;DHT22;18385;51.572;6.578;2022-07-17T01:09:33;18.00;44.70
31677;DHT22;18385;51.572;6.578;2022-07-17T01:11:59;17.90;44.70
31677;DHT22;18385;51.572;6.578;2022-07-17T01:14:26;17.90;44.90
31677;DHT22;18385;51.572;6.578;2022-07-17T01:16:53;17.90;45.00
31677;DHT22;18385;51.572;6.578;2022-07-17T01:19:20;17.90;45.10
31677;DHT22;18385;51.572;6.578;2022-07-17T01:21:48;17.80;45.20
31677;DHT22;18385;51.572;6.578;2022-07-17T01:24:15;17.80;45.40
31677;DHT22;18385;51.572;6.578;2022-07-17T01:26:46;17.80;45.40
31677;DHT22;18385;51.572;6.578;2022-07-17T01:29:13;17.70;45.50
31677;DHT22;18385;51.572;6.578;2022-07-17T01:31:40;17.70;45.60
31677;DHT22;18385;51.572;6.578;2022-07-17T01:34:07;17.70;45.70
31677;DHT22;18385;51.572;6.578;2022-07-17T01:36:33;17.70;45.80
31677;DHT22;18385;51.572;6.578;2022-07-17T01:38:59;17.60;45.90
31677;DHT22;18385;51.572;6.578;2022-07-17T01:41:24;17.50;46.00
31677;DHT22;18385;51.572;6.578;2022-07-17T01:43:50;17.50;46.10
31677;DHT22;18385;51.572;6.578;2022-07-17T01:46:16;17.50;46.20
31677;DHT22;18385;51.572;6.578;2022-07-17T01:48:41;17.50;46.40
31677;DHT22;18385;51.572;6.578;2022-07-17T01:51:07;17.50;46.40
31677;DHT22;18385;51.572;6.578;2022-07-17T01:53:33;17.40;46.60
31677;DHT22;18385;51.572;6.578;2022-07-17T01:55:59;17.40;46.60
31677;DHT22;18385;51.572;6.578;2022-07-17T01:58:25;17.30;46.70
31677;DHT22;18385;51.572;6.578;2022-07-17T02:00:51;17.30;46.80
31677;DHT22;18385;51.572;6.578;2022-07-17T02:03:17;17.30;46.90
31677;DHT22;18385;51.572;6.578;2022-07-17T02:05:43;17.20;47.00
31677;DHT22;18385;51.572;6.578;2022-07-17T02:08:09;17.20;47.10
31677;DHT22;18385;51.572;6.578;2022-07-17T02:10:35;17.20;47.20
31677;DHT22;18385;51.572;6.578;2022-07-17T02:13:01;17.10;47.30
31677;DHT22;18385;51.572;6.578;2022-07-17T02:15:26;17.10;47.30
31677;DHT22;18385;51.572;6.578;2022-07-17T02:17:52;17.10;47.50
31677;DHT22;18385;51.572;6.578;2022-07-17T02:20:18;17.10;47.50
31677;DHT22;18385;51.572;6.578;2022-07-17T02:22:44;17.00;47.60
31677;DHT22;18385;51.572;6.578;2022-07-17T02:25:11;17.00;47.70
31677;DHT22;18385;51.572;6.578;2022-07-17T02:27:38;17.00;47.90
31677;DHT22;18385;51.572;6.578;2022-07-17T02:30:09;17.00;48.00
31677;DHT22;18385;51.572;6.578;2022-07-17T02:32:36;16.90;48.20
31677;DHT22;18385;51.572;6.578;2022-07-17T02:35:02;16.90;48.10
31677;DHT22;18385;51.572;6.578;2022-07-17T02:37:27;16.80;48.20
31677;DHT22;18385;51.572;6.578;2022-07-17T02:39:53;16.80;48.30
31677;DHT22;18385;51.572;6.578;2022-07-17T02:42:23;16.80;48.40
31677;DHT22;18385;51.572;6.578;2022-07-17T02:44:50;16.70;48.50
31677;DHT22;18385;51.572;6.578;2022-07-17T02:47:30;16.70;48.60
31677;DHT22;18385;51.572;6.578;2022-07-17T02:49:57;16.70;48.70
31677;DHT22;18385;51.572;6.578;2022-07-17T02:52:23;16.60;48.70
31677;DHT22;18385;51.572;6.578;2022-07-17T02:54:49;16.60;48.80
31677;DHT22;18385;51.572;6.578;2022-07-17T02:57:16;16.60;49.00
31677;DHT22;18385;51.572;6.578;2022-07-17T02:59:41;16.50;49.00
31677;DHT22;18385;51.572;6.578;2022-07-17T03:02:07;16.50;49.10
31677;DHT22;18385;51.572;6.578;2022-07-17T03:04:33;16.50;49.20
31677;DHT22;18385;51.572;6.578;2022-07-17T03:06:59;16.50;49.30
31677;DHT22;18385;51.572;6.578;2022-07-17T03:09:24;16.40;49.30
31677;DHT22;18385;51.572;6.578;2022-07-17T03:11:50;16.40;49.40
31677;DHT22;18385;51.572;6.578;2022-07-17T03:14:16;16.30;49.50
31677;DHT22;18385;51.572;6.578;2022-07-17T03:16:41;16.30;49.60
31677;DHT22;18385;51.572;6.578;2022-07-17T03:19:07;16.20;49.70
31677;DHT22;18385;51.572;6.578;2022-07-17T03:21:33;16.20;49.80
31677;DHT22;18385;51.572;6.578;2022-07-17T03:23:58;16.20;49.90
31677;DHT22;18385;51.572;6.578;2022-07-17T03:26:24;16.20;50.00
31677;DHT22;18385;51.572;6.578;2022-07-17T03:28:50;16.20;50.00
31677;DHT22;18385;51.572;6.578;2022-07-17T03:31:15;16.10;50.00
31677;DHT22;18385;51.572;6.578;2022-07-17T03:33:41;16.10;50.10
31677;DHT22;18385;51.572;6.578;2022-07-17T03:36:07;16.10;50.20
31677;DHT22;18385;51.572;6.578;2022-07-17T03:38:33;16.00;50.30
31677;DHT22;18385;51.572;6.578;2022-07-17T03:40:59;16.00;50.50
31677;DHT22;18385;51.572;6.578;2022-07-17T03:43:25;16.00;51.10
31677;DHT22;18385;51.572;6.578;2022-07-17T03:45:50;15.90;50.50
31677;DHT22;18385;51.572;6.578;2022-07-17T03:48:16;15.90;50.60
31677;DHT22;18385;51.572;6.578;2022-07-17T03:50:42;15.90;50.70
31677;DHT22;18385;51.572;6.578;2022-07-17T03:53:08;15.90;50.80
31677;DHT22;18385;51.572;6.578;2022-07-17T03:55:33;15.90;51.50
31677;DHT22;18385;51.572;6.578;2022-07-17T03:57:59;15.80;50.90
31677;DHT22;18385;51.572;6.578;2022-07-17T04:00:26;15.80;51.00
31677;DHT22;18385;51.572;6.578;2022-07-17T04:02:51;15.90;51.20
31677;DHT22;18385;51.572;6.578;2022-07-17T04:05:17;15.80;51.10
31677;DHT22;18385;51.572;6.578;2022-07-17T04:07:43;15.90;51.20
31677;DHT22;18385;51.572;6.578;2022-07-17T04:10:11;15.80;51.10
31677;DHT22;18385;51.572;6.578;2022-07-17T04:12:37;15.90;51.40
31677;DHT22;18385;51.572;6.578;2022-07-17T04:15:03;15.90;51.40
31677;DHT22;18385;51.572;6.578;2022-07-17T04:17:29;15.90;51.40
31677;DHT22;18385;51.572;6.578;2022-07-17T04:19:55;16.00;51.40
31677;DHT22;18385;51.572;6.578;2022-07-17T04:22:21;16.00;51.50
31677;DHT22;18385;51.572;6.578;2022-07-17T04:24:47;16.10;51.40
31677;DHT22;18385;51.572;6.578;2022-07-17T04:27:12;16.20;51.40
31677;DHT22;18385;51.572;6.578;2022-07-17T04:29:38;16.20;51.40
31677;DHT22;18385;51.572;6.578;2022-07-17T04:32:05;16.20;51.40
31677;DHT22;18385;51.572;6.578;2022-07-17T04:34:31;16.30;51.60
31677;DHT22;18385;51.572;6.578;2022-07-17T04:37:00;16.30;51.60
31677;DHT22;18385;51.572;6.578;2022-07-17T04:39:27;16.30;51.60
31677;DHT22;18385;51.572;6.578;2022-07-17T04:41:52;16.30;51.70
31677;DHT22;18385;51.572;6.578;2022-07-17T04:44:18;16.30;51.70
31677;DHT22;18385;51.572;6.578;2022-07-17T04:46:44;16.30;51.70
31677;DHT22;18385;51.572;6.578;2022-07-17T04:49:10;16.30;51.70
31677;DHT22;18385;51.572;6.578;2022-07-17T04:51:36;16.40;51.80
31677;DHT22;18385;51.572;6.578;2022-07-17T04:54:02;16.40;51.90
31677;DHT22;18385;51.572;6.578;2022-07-17T04:56:28;16.40;51.90
31677;DHT22;18385;51.572;6.578;2022-07-17T04:58:53;16.40;51.90
31677;DHT22;18385;51.572;6.578;2022-07-17T05:01:19;16.40;51.90
31677;DHT22;18385;51.572;6.578;2022-07-17T05:03:45;16.50;52.00
31677;DHT22;18385;51.572;6.578;2022-07-17T05:06:10;16.50;52.00
31677;DHT22;18385;51.572;6.578;2022-07-17T05:08:36;16.60;52.10
31677;DHT22;18385;51.572;6.578;2022-07-17T05:11:02;16.70;52.10
31677;DHT22;18385;51.572;6.578;2022-07-17T05:13:28;16.70;52.00
31677;DHT22;18385;51.572;6.578;2022-07-17T05:15:53;16.80;52.00
31677;DHT22;18385;51.572;6.578;2022-07-17T05:18:19;16.80;52.00
31677;DHT22;18385;51.572;6.578;2022-07-17T05:20:45;16.90;52.00
31677;DHT22;18385;51.572;6.578;2022-07-17T05:23:10;17.00;52.00
31677;DHT22;18385;51.572;6.578;2022-07-17T05:25:36;17.00;51.90
31677;DHT22;18385;51.572;6.578;2022-07-17T05:28:02;17.00;51.90
31677;DHT22;18385;51.572;6.578;2022-07-17T05:30:28;17.10;52.00
31677;DHT22;18385;51.572;6.578;2022-07-17T05:32:54;17.30;52.00
31677;DHT22;18385;51.572;6.578;2022-07-17T05:35:20;17.30;51.90
31677;DHT22;18385;51.572;6.578;2022-07-17T05:37:46;17.40;52.60
31677;DHT22;18385;51.572;6.578;2022-07-17T05:40:12;17.50;51.80
31677;DHT22;18385;51.572;6.578;2022-07-17T05:42:38;17.50;51.70
31677;DHT22;18385;51.572;6.578;2022-07-17T05:45:04;17.60;51.70
31677;DHT22;18385;51.572;6.578;2022-07-17T05:47:30;17.60;51.70
31677;DHT22;18385;51.572;6.578;2022-07-17T05:49:57;17.60;51.80
31677;DHT22;18385;51.572;6.578;2022-07-17T05:52:22;17.70;51.80
31677;DHT22;18385;51.572;6.578;2022-07-17T05:54:48;17.70;51.80
31677;DHT22;18385;51.572;6.578;2022-07-17T05:57:14;17.80;51.80
31677;DHT22;18385;51.572;6.578;2022-07-17T05:59:39;17.80;51.80
31677;DHT22;18385;51.572;6.578;2022-07-17T06:02:05;17.90;51.70
31677;DHT22;18385;51.572;6.578;2022-07-17T06:04:31;17.90;51.60
31677;DHT22;18385;51.572;6.578;2022-07-17T06:06:57;18.00;51.60
31677;DHT22;18385;51.572;6.578;2022-07-17T06:09:22;18.00;51.60
31677;DHT22;18385;51.572;6.578;2022-07-17T06:11:48;18.10;52.30
31677;DHT22;18385;51.572;6.578;2022-07-17T06:14:14;18.20;51.60
31677;DHT22;18385;51.572;6.578;2022-07-17T06:16:40;18.30;51.50
31677;DHT22;18385;51.572;6.578;2022-07-17T06:19:07;18.30;51.50
31677;DHT22;18385;51.572;6.578;2022-07-17T06:21:37;18.40;51.50
31677;DHT22;18385;51.572;6.578;2022-07-17T06:24:03;18.50;51.40
31677;DHT22;18385;51.572;6.578;2022-07-17T06:26:28;18.50;51.40
31677;DHT22;18385;51.572;6.578;2022-07-17T06:28:56;18.60;51.40
31677;DHT22;18385;51.572;6.578;2022-07-17T06:31:22;18.70;51.40
31677;DHT22;18385;51.572;6.578;2022-07-17T06:33:48;18.70;51.40
31677;DHT22;18385;51.572;6.578;2022-07-17T06:36:14;18.80;51.40
31677;DHT22;18385;51.572;6.578;2022-07-17T06:38:40;19.00;51.40
31677;DHT22;18385;51.572;6.578;2022-07-17T06:41:07;19.10;51.30
31677;DHT22;18385;51.572;6.578;2022-07-17T06:43:34;19.20;51.30
31677;DHT22;18385;51.572;6.578;2022-07-17T06:46:00;19.20;51.20
31677;DHT22;18385;51.572;6.578;2022-07-17T06:48:26;19.30;51.10
31677;DHT22;18385;51.572;6.578;2022-07-17T06:50:51;19.30;51.00
31677;DHT22;18385;51.572;6.578;2022-07-17T06:53:17;19.50;51.10
31677;DHT22;18385;51.572;6.578;2022-07-17T06:55:43;19.60;51.10
31677;DHT22;18385;51.572;6.578;2022-07-17T06:58:09;19.70;51.00
31677;DHT22;18385;51.572;6.578;2022-07-17T07:00:34;19.80;50.90
31677;DHT22;18385;51.572;6.578;2022-07-17T07:03:00;19.80;50.80
31677;DHT22;18385;51.572;6.578;2022-07-17T07:05:26;19.90;50.80
31677;DHT22;18385;51.572;6.578;2022-07-17T07:07:52;20.00;50.70
31677;DHT22;18385;51.572;6.578;2022-07-17T07:10:17;20.10;50.60
31677;DHT22;18385;51.572;6.578;2022-07-17T07:12:43;20.20;50.60
31677;DHT22;18385;51.572;6.578;2022-07-17T07:15:09;20.40;50.60
31677;DHT22;18385;51.572;6.578;2022-07-17T07:17:35;20.50;50.40
31677;DHT22;18385;51.572;6.578;2022-07-17T07:20:02;20.60;50.30
31677;DHT22;18385;51.572;6.578;2022-07-17T07:22:29;20.70;50.00
31677;DHT22;18385;51.572;6.578;2022-07-17T07:24:55;20.70;49.80
31677;DHT22;18385;51.572;6.578;2022-07-17T07:27:21;20.80;49.80
31677;DHT22;18385;51.572;6.578;2022-07-17T07:29:46;20.90;49.80
31677;DHT22;18385;51.572;6.578;2022-07-17T07:32:12;20.90;49.60
31677;DHT22;18385;51.572;6.578;2022-07-17T07:34:38;21.00;49.50
31677;DHT22;18385;51.572;6.578;2022-07-17T07:37:04;21.00;49.40
31677;DHT22;18385;51.572;6.578;2022-07-17T07:39:29;21.00;49.40
31677;DHT22;18385;51.572;6.578;2022-07-17T07:41:55;21.10;49.40
31677;DHT22;18385;51.572;6.578;2022-07-17T07:44:21;21.20;49.30
31677;DHT22;18385;51.572;6.578;2022-07-17T07:46:47;21.20;49.20
31677;DHT22;18385;51.572;6.578;2022-07-17T07:49:12;21.20;49.20
31677;DHT22;18385;51.572;6.578;2022-07-17T07:51:38;21.30;49.10
31677;DHT22;18385;51.572;6.578;2022-07-17T07:54:04;21.40;49.00
31677;DHT22;18385;51.572;6.578;2022-07-17T07:56:30;21.50;49.00
31677;DHT22;18385;51.572;6.578;2022-07-17T07:58:55;21.50;48.80
31677;DHT22;18385;51.572;6.578;2022-07-17T08:01:21;21.50;48.60
31677;DHT22;18385;51.572;6.578;2022-07-17T08:03:47;21.50;48.70
31677;DHT22;18385;51.572;6.578;2022-07-17T08:06:13;21.60;48.50
31677;DHT22;18385;51.572;6.578;2022-07-17T08:08:40;21.70;48.50
31677;DHT22;18385;51.572;6.578;2022-07-17T08:11:06;21.70;48.30
31677;DHT22;18385;51.572;6.578;2022-07-17T08:13:32;21.80;48.20
31677;DHT22;18385;51.572;6.578;2022-07-17T08:15:58;21.80;48.10
31677;DHT22;18385;51.572;6.578;2022-07-17T08:18:25;21.90;48.00
31677;DHT22;18385;51.572;6.578;2022-07-17T08:20:55;21.90;47.90
31677;DHT22;18385;51.572;6.578;2022-07-17T08:23:21;22.00;47.80
31677;DHT22;18385;51.572;6.578;2022-07-17T08:25:47;22.10;47.70
31677;DHT22;18385;51.572;6.578;2022-07-17T08:28:14;22.20;47.70
31677;DHT22;18385;51.572;6.578;2022-07-17T08:30:40;22.20;47.50
31677;DHT22;18385;51.572;6.578;2022-07-17T08:33:07;22.30;47.40
31677;DHT22;18385;51.572;6.578;2022-07-17T08:35:34;22.40;47.20
31677;DHT22;18385;51.572;6.578;2022-07-17T08:38:00;22.40;47.10
31677;DHT22;18385;51.572;6.578;2022-07-17T08:40:28;22.50;46.90
31677;DHT22;18385;51.572;6.578;2022-07-17T08:42:56;22.50;46.80
31677;DHT22;18385;51.572;6.578;2022-07-17T08:45:22;22.50;46.70
31677;DHT22;18385;51.572;6.578;2022-07-17T08:47:50;22.50;46.50
31677;DHT22;18385;51.572;6.578;2022-07-17T08:50:16;22.60;46.50
31677;DHT22;18385;51.572;6.578;2022-07-17T08:52:44;22.60;46.40
31677;DHT22;18385;51.572;6.578;2022-07-17T08:55:12;22.80;46.40
31677;DHT22;18385;51.572;6.578;2022-07-17T08:57:40;22.80;46.00
31677;DHT22;18385;51.572;6.578;2022-07-17T09:00:06;22.80;45.90
31677;DHT22;18385;51.572;6.578;2022-07-17T09:02:32;22.90;45.90
31677;DHT22;18385;51.572;6.578;2022-07-17T09:04:58;22.90;45.70
31677;DHT22;18385;51.572;6.578;2022-07-17T09:07:24;23.00;45.70
31677;DHT22;18385;51.572;6.578;2022-07-17T09:09:51;23.10;45.50
31677;DHT22;18385;51.572;6.578;2022-07-17T09:12:17;23.20;45.20
31677;DHT22;18385;51.572;6.578;2022-07-17T09:14:42;23.30;45.10
31677;DHT22;18385;51.572;6.578;2022-07-17T09:17:10;23.30;44.90
31677;DHT22;18385;51.572;6.578;2022-07-17T09:19:43;23.20;44.80
31677;DHT22;18385;51.572;6.578;2022-07-17T09:22:20;23.20;44.70
31677;DHT22;18385;51.572;6.578;2022-07-17T09:24:57;23.30;44.70
31677;DHT22;18385;51.572;6.578;2022-07-17T09:29:59;23.40;44.50
31677;DHT22;18385;51.572;6.578;2022-07-17T09:32:29;23.50;44.20
31677;DHT22;18385;51.572;6.578;2022-07-17T09:34:56;23.60;44.10
31677;DHT22;18385;51.572;6.578;2022-07-17T09:37:24;23.70;44.00
31677;DHT22;18385;51.572;6.578;2022-07-17T09:39:49;23.70;43.80
31677;DHT22;18385;51.572;6.578;2022-07-17T09:42:31;23.70;43.80
31677;DHT22;18385;51.572;6.578;2022-07-17T09:45:06;23.80;43.50
31677;DHT22;18385;51.572;6.578;2022-07-17T09:47:37;23.80;43.30
31677;DHT22;18385;51.572;6.578;2022-07-17T09:50:06;23.90;43.20
31677;DHT22;18385;51.572;6.578;2022-07-17T09:52:34;24.10;43.20
31677;DHT22;18385;51.572;6.578;2022-07-17T09:55:01;24.10;43.00
31677;DHT22;18385;51.572;6.578;2022-07-17T09:57:30;24.10;42.80
31677;DHT22;18385;51.572;6.578;2022-07-17T10:00:07;24.10;42.60
31677;DHT22;18385;51.572;6.578;2022-07-17T10:02:41;24.10;42.40
31677;DHT22;18385;51.572;6.578;2022-07-17T10:05:11;24.10;42.40
31677;DHT22;18385;51.572;6.578;2022-07-17T10:07:46;24.10;42.30
31677;DHT22;18385;51.572;6.578;2022-07-17T10:10:13;24.10;42.10
31677;DHT22;18385;51.572;6.578;2022-07-17T10:12:42;24.20;42.10
31677;DHT22;18385;51.572;6.578;2022-07-17T10:15:09;24.30;41.90
31677;DHT22;18385;51.572;6.578;2022-07-17T10:17:36;24.50;41.90
31677;DHT22;18385;51.572;6.578;2022-07-17T10:20:03;24.60;41.50
31677;DHT22;18385;51.572;6.578;2022-07-17T10:22:41;24.60;41.20
31677;DHT22;18385;51.572;6.578;2022-07-17T10:25:13;24.70;41.10
31677;DHT22;18385;51.572;6.578;2022-07-17T10:27:51;24.70;40.90
31677;DHT22;18385;51.572;6.578;2022-07-17T10:30:24;24.80;40.60
31677;DHT22;18385;51.572;6.578;2022-07-17T10:35:20;25.00;40.30
31677;DHT22;18385;51.572;6.578;2022-07-17T10:37:46;25.10;40.20
31677;DHT22;18385;51.572;6.578;2022-07-17T10:42:58;25.30;39.80
31677;DHT22;18385;51.572;6.578;2022-07-17T10:45:39;25.40;39.30
31677;DHT22;18385;51.572;6.578;2022-07-17T10:50:52;25.60;38.80
31677;DHT22;18385;51.572;6.578;2022-07-17T10:53:19;25.60;38.50
31677;DHT22;18385;51.572;6.578;2022-07-17T10:55:51;25.60;38.50
31677;DHT22;18385;51.572;6.578;2022-07-17T10:58:19;25.60;38.30
31677;DHT22;18385;51.572;6.578;2022-07-17T11:03:25;25.70;37.80
31677;DHT22;18385;51.572;6.578;2022-07-17T11:05:50;25.70;37.80
31677;DHT22;18385;51.572;6.578;2022-07-17T11:08:16;25.80;37.60
31677;DHT22;18385;51.572;6.578;2022-07-17T11:10:42;25.80;37.30
31677;DHT22;18385;51.572;6.578;2022-07-17T11:13:14;25.90;36.90
31677;DHT22;18385;51.572;6.578;2022-07-17T11:15:44;26.00;36.40
31677;DHT22;18385;51.572;6.578;2022-07-17T11:18:12;26.10;36.40
31677;DHT22;18385;51.572;6.578;2022-07-17T11:20:56;26.10;36.10
31677;DHT22;18385;51.572;6.578;2022-07-17T11:23:26;26.20;35.80
31677;DHT22;18385;51.572;6.578;2022-07-17T11:26:03;26.30;35.50
31677;DHT22;18385;51.572;6.578;2022-07-17T11:28:37;26.30;35.30
31677;DHT22;18385;51.572;6.578;2022-07-17T11:33:59;26.50;34.90
31677;DHT22;18385;51.572;6.578;2022-07-17T11:36:33;26.60;34.40
31677;DHT22;18385;51.572;6.578;2022-07-17T11:39:09;26.70;34.20
31677;DHT22;18385;51.572;6.578;2022-07-17T11:44:04;26.90;34.00
31677;DHT22;18385;51.572;6.578;2022-07-17T11:46:31;27.10;33.90
31677;DHT22;18385;51.572;6.578;2022-07-17T11:48:59;27.20;33.80
31677;DHT22;18385;51.572;6.578;2022-07-17T11:51:44;27.40;33.60
31677;DHT22;18385;51.572;6.578;2022-07-17T11:54:12;27.60;33.10
31677;DHT22;18385;51.572;6.578;2022-07-17T11:56:39;27.70;32.70
31677;DHT22;18385;51.572;6.578;2022-07-17T11:59:05;27.80;32.20
31677;DHT22;18385;51.572;6.578;2022-07-17T12:01:42;27.70;31.80
31677;DHT22;18385;51.572;6.578;2022-07-17T12:04:10;27.70;31.70
31677;DHT22;18385;51.572;6.578;2022-07-17T12:06:36;27.90;31.70
31677;DHT22;18385;51.572;6.578;2022-07-17T12:09:06;28.00;31.50
31677;DHT22;18385;51.572;6.578;2022-07-17T12:11:33;28.20;31.30
31677;DHT22;18385;51.572;6.578;2022-07-17T12:14:09;28.20;31.00
31677;DHT22;18385;51.572;6.578;2022-07-17T12:16:36;28.20;31.10
31677;DHT22;18385;51.572;6.578;2022-07-17T12:19:04;28.30;30.90
31677;DHT22;18385;51.572;6.578;2022-07-17T12:21:32;28.40;30.70
31677;DHT22;18385;51.572;6.578;2022-07-17T12:24:01;28.30;30.50
31677;DHT22;18385;51.572;6.578;2022-07-17T12:26:28;28.40;30.50
31677;DHT22;18385;51.572;6.578;2022-07-17T12:28:54;28.60;30.70
31677;DHT22;18385;51.572;6.578;2022-07-17T12:31:20;28.80;30.50
31677;DHT22;18385;51.572;6.578;2022-07-17T12:33:47;29.10;30.20
31677;DHT22;18385;51.572;6.578;2022-07-17T12:36:13;29.30;30.00
31677;DHT22;18385;51.572;6.578;2022-07-17T12:38:39;29.50;30.00
31677;DHT22;18385;51.572;6.578;2022-07-17T12:41:05;29.60;29.80
31677;DHT22;18385;51.572;6.578;2022-07-17T12:43:31;29.90;29.70
31677;DHT22;18385;51.572;6.578;2022-07-17T12:45:57;30.10;29.30
31677;DHT22;18385;51.572;6.578;2022-07-17T12:48:22;30.00;29.10
31677;DHT22;18385;51.572;6.578;2022-07-17T12:50:48;30.10;29.10
31677;DHT22;18385;51.572;6.578;2022-07-17T12:53:14;30.20;29.50
31677;DHT22;18385;51.572;6.578;2022-07-17T12:55:39;30.10;28.60
31677;DHT22;18385;51.572;6.578;2022-07-17T12:58:05;29.90;28.60
31677;DHT22;18385;51.572;6.578;2022-07-17T13:00:31;29.80;28.50
31677;DHT22;18385;51.572;6.578;2022-07-17T13:02:57;29.80;28.50
31677;DHT22;18385;51.572;6.578;2022-07-17T13:05:23;30.00;28.50
31677;DHT22;18385;51.572;6.578;2022-07-17T13:07:49;30.50;28.70
31677;DHT22;18385;51.572;6.578;2022-07-17T13:10:15;31.30;29.00
31677;DHT22;18385;51.572;6.578;2022-07-17T13:12:41;32.00;28.80
31677;DHT22;18385;51.572;6.578;2022-07-17T13:15:07;32.50;28.10
31677;DHT22;18385;51.572;6.578;2022-07-17T13:17:34;32.80;27.70
31677;DHT22;18385;51.572;6.578;2022-07-17T13:20:01;32.90;27.30
31677;DHT22;18385;51.572;6.578;2022-07-17T13:22:27;33.00;27.30
31677;DHT22;18385;51.572;6.578;2022-07-17T13:24:52;33.20;27.20
31677;DHT22;18385;51.572;6.578;2022-07-17T13:27:18;33.40;26.90
31677;DHT22;18385;51.572;6.578;2022-07-17T13:29:44;33.70;26.80
31677;DHT22;18385;51.572;6.578;2022-07-17T13:32:09;34.30;26.60
31677;DHT22;18385;51.572;6.578;2022-07-17T13:34:36;34.80;26.40
31677;DHT22;18385;51.572;6.578;2022-07-17T13:37:01;35.00;25.70
31677;DHT22;18385;51.572;6.578;2022-07-17T13:39:27;35.10;25.50
31677;DHT22;18385;51.572;6.578;2022-07-17T13:41:53;35.40;25.50
31677;DHT22;18385;51.572;6.578;2022-07-17T13:44:19;35.70;25.20
31677;DHT22;18385;51.572;6.578;2022-07-17T13:46:45;36.10;25.00
31677;DHT22;18385;51.572;6.578;2022-07-17T13:49:10;36.60;24.80
31677;DHT22;18385;51.572;6.578;2022-07-17T13:51:36;36.90;24.10
31677;DHT22;18385;51.572;6.578;2022-07-17T13:54:02;36.90;23.70
31677;DHT22;18385;51.572;6.578;2022-07-17T13:56:28;36.90;23.40
31677;DHT22;18385;51.572;6.578;2022-07-17T13:58:53;36.90;23.40
31677;DHT22;18385;51.572;6.578;2022-07-17T14:01:20;37.10;23.30
31677;DHT22;18385;51.572;6.578;2022-07-17T14:03:45;37.30;22.80
31677;DHT22;18385;51.572;6.578;2022-07-17T14:06:11;37.20;22.30
31677;DHT22;18385;51.572;6.578;2022-07-17T14:08:37;37.00;22.20
31677;DHT22;18385;51.572;6.578;2022-07-17T14:11:03;37.20;22.30
31677;DHT22;18385;51.572;6.578;2022-07-17T14:13:29;37.60;22.50
31677;DHT22;18385;51.572;6.578;2022-07-17T14:15:56;38.10;22.00
31677;DHT22;18385;51.572;6.578;2022-07-17T14:18:22;38.40;21.80
31677;DHT22;18385;51.572;6.578;2022-07-17T14:20:48;38.60;21.10
31677;DHT22;18385;51.572;6.578;2022-07-17T14:23:14;38.90;21.10
31677;DHT22;18385;51.572;6.578;2022-07-17T14:25:42;39.40;20.70
31677;DHT22;18385;51.572;6.578;2022-07-17T14:28:07;39.70;20.50
31677;DHT22;18385;51.572;6.578;2022-07-17T14:30:33;39.70;20.20
31677;DHT22;18385;51.572;6.578;2022-07-17T14:33:00;39.80;19.80
31677;DHT22;18385;51.572;6.578;2022-07-17T14:35:26;39.90;19.50
31677;DHT22;18385;51.572;6.578;2022-07-17T14:37:52;39.70;19.20
31677;DHT22;18385;51.572;6.578;2022-07-17T14:40:17;39.60;19.30
31677;DHT22;18385;51.572;6.578;2022-07-17T14:42:43;39.50;19.10
31677;DHT22;18385;51.572;6.578;2022-07-17T14:45:09;39.20;18.90
31677;DHT22;18385;51.572;6.578;2022-07-17T14:47:36;39.00;18.90
31677;DHT22;18385;51.572;6.578;2022-07-17T14:50:02;38.80;18.90
31677;DHT22;18385;51.572;6.578;2022-07-17T14:52:28;39.00;19.10
31677;DHT22;18385;51.572;6.578;2022-07-17T14:54:54;39.50;19.00
31677;DHT22;18385;51.572;6.578;2022-07-17T14:57:20;39.90;18.60
31677;DHT22;18385;51.572;6.578;2022-07-17T14:59:45;40.00;18.40
31677;DHT22;18385;51.572;6.578;2022-07-17T15:02:11;40.00;18.00
31677;DHT22;18385;51.572;6.578;2022-07-17T15:04:36;39.80;17.90
31677;DHT22;18385;51.572;6.578;2022-07-17T15:07:03;39.70;18.00
31677;DHT22;18385;51.572;6.578;2022-07-17T15:09:29;39.90;18.00
31677;DHT22;18385;51.572;6.578;2022-07-17T15:11:55;40.00;17.60
31677;DHT22;18385;51.572;6.578;2022-07-17T15:14:21;40.20;17.60
31677;DHT22;18385;51.572;6.578;2022-07-17T15:16:47;40.00;17.30
31677;DHT22;18385;51.572;6.578;2022-07-17T15:19:12;40.10;17.50
31677;DHT22;18385;51.572;6.578;2022-07-17T15:21:38;40.40;17.30
31677;DHT22;18385;51.572;6.578;2022-07-17T15:24:04;40.70;17.30
31677;DHT22;18385;51.572;6.578;2022-07-17T15:26:30;41.10;17.40
31677;DHT22;18385;51.572;6.578;2022-07-17T15:28:57;41.60;17.20
31677;DHT22;18385;51.572;6.578;2022-07-17T15:31:23;42.10;17.50
31677;DHT22;18385;51.572;6.578;2022-07-17T15:33:49;42.80;16.60
31677;DHT22;18385;51.572;6.578;2022-07-17T15:36:15;43.30;16.40
31677;DHT22;18385;51.572;6.578;2022-07-17T15:38:57;43.50;16.10
31677;DHT22;18385;51.572;6.578;2022-07-17T15:41:25;43.60;15.70
31677;DHT22;18385;51.572;6.578;2022-07-17T15:43:52;43.80;15.80
31677;DHT22;18385;51.572;6.578;2022-07-17T15:46:18;44.30;15.80